Time;durP1;ratioP1;P1;durP2;ratioP2;P2;SDS_P1;SDS_P2;PMS_P1;PMS_P2;Temp;Humidity;BMP_temperature;BMP_pressure;BME280_temperature;BME280_humidity;BME280_pressure;Samples;Min_cycle;Max_cycle;Signal;HPM_P1;HPM_P2
2021/01/25 00:00:20;;;;;;;17.83;8.82;;;;;;;-2.06;87.29;97243.00;4862365;29;20036;-71
2021/01/25 00:02:45;;;;;;;22.75;10.07;;;;;;;-2.07;87.03;97239.63;4861265;29;20027;-71
2021/01/25 00:05:11;;;;;;;17.02;9.32;;;;;;;-2.15;87.38;97240.38;4861360;29;20406;-71
2021/01/25 00:07:37;;;;;;;22.95;9.63;;;;;;;-2.19;87.70;97236.13;4862078;29;20082;-71
2021/01/25 00:10:04;;;;;;;19.65;9.30;;;;;;;-2.13;87.63;97228.56;4862247;29;20709;-71
2021/01/25 00:12:30;;;;;;;19.40;9.63;;;;;;;-2.01;87.19;97230.34;4860801;29;20433;-71
2021/01/25 00:14:55;;;;;;;15.32;9.18;;;;;;;-2.02;87.17;97221.03;4861042;29;20033;-71
2021/01/25 00:17:21;;;;;;;18.17;8.68;;;;;;;-2.02;87.22;97229.50;4861090;29;20064;-71
2021/01/25 00:19:47;;;;;;;13.60;8.27;;;;;;;-1.88;87.18;97232.97;4861743;29;20025;-71
2021/01/25 00:22:12;;;;;;;16.70;8.32;;;;;;;-1.90;86.98;97227.00;4861534;29;20025;-71
2021/01/25 00:24:38;;;;;;;11.02;7.07;;;;;;;-1.88;86.52;97225.34;4862141;29;20384;-71
2021/01/25 00:27:04;;;;;;;16.85;7.40;;;;;;;-1.93;86.32;97219.41;4861058;29;20124;-71
2021/01/25 00:29:29;;;;;;;10.75;6.95;;;;;;;-1.86;86.57;97220.28;4861826;29;20384;-71
2021/01/25 00:31:54;;;;;;;12.55;7.35;;;;;;;-1.78;85.92;97208.47;4861051;29;20491;-71
2021/01/25 00:34:21;;;;;;;14.15;7.65;;;;;;;-1.83;85.40;97211.00;4861343;29;20252;-70
2021/01/25 00:36:47;;;;;;;12.75;7.50;;;;;;;-1.84;85.26;97198.28;4860994;29;20044;-71
2021/01/25 00:39:12;;;;;;;12.45;7.63;;;;;;;-1.85;85.52;97192.34;4861469;29;20033;-71
2021/01/25 00:41:37;;;;;;;9.93;6.70;;;;;;;-1.90;86.01;97198.25;4876806;29;20037;-71
2021/01/25 00:44:03;;;;;;;9.52;7.10;;;;;;;-1.93;85.99;97188.94;4861843;29;20704;-71
2021/01/25 00:46:28;;;;;;;12.82;7.00;;;;;;;-1.85;85.63;97177.13;4860934;29;20040;-71
2021/01/25 00:48:54;;;;;;;17.02;7.10;;;;;;;-1.93;85.90;97166.13;4861106;29;20143;-71
2021/01/25 00:51:19;;;;;;;13.38;6.82;;;;;;;-1.94;86.32;97158.47;4860817;29;20044;-71
2021/01/25 00:53:44;;;;;;;15.75;7.95;;;;;;;-2.05;86.76;97153.34;4860962;29;20040;-72
2021/01/25 00:56:12;;;;;;;12.80;7.20;;;;;;;-1.92;86.27;97160.19;4861907;29;20025;-71
2021/01/25 00:58:39;;;;;;;13.60;8.48;;;;;;;-1.91;86.29;97150.88;4859835;29;20033;-71
2021/01/25 07:00:38;;;;;;;25.65;14.25;;;;;;;-1.37;95.64;97239.13;5733410;23;21622;-69
2021/01/25 07:03:03;;;;;;;33.35;15.70;;;;;;;-1.31;95.51;97236.63;4877081;29;20048;-68
2021/01/25 07:05:31;;;;;;;27.20;15.82;;;;;;;-1.19;95.72;97234.97;4879263;29;20033;-69
2021/01/25 07:08:29;;;;;;;26.08;16.15;;;;;;;-1.26;94.61;97248.47;4873885;29;20032;-69
2021/01/25 07:11:05;;;;;;;24.50;15.82;;;;;;;-1.34;94.73;97256.94;4861341;29;20633;-69
2021/01/25 07:13:35;;;;;;;22.55;14.02;;;;;;;-1.36;94.63;97261.13;4899976;23;20475;-70
2021/01/25 07:16:01;;;;;;;24.30;14.10;;;;;;;-1.21;94.61;97256.97;4870759;29;20088;-71
2021/01/25 07:18:28;;;;;;;26.25;15.30;;;;;;;-1.32;94.15;97264.56;4871064;29;20676;-70
2021/01/25 07:20:58;;;;;;;28.55;15.75;;;;;;;-1.22;94.43;97268.81;4870985;29;20043;-70
2021/01/25 07:23:26;;;;;;;30.10;15.85;;;;;;;-1.32;93.86;97274.72;4870536;29;20509;-70
2021/01/25 07:26:02;;;;;;;30.58;16.60;;;;;;;-1.24;93.77;97273.06;4870904;29;20040;-70
2021/01/25 07:28:29;;;;;;;28.05;16.13;;;;;;;-1.08;93.61;97277.34;4871371;29;20064;-70
2021/01/25 07:30:55;;;;;;;22.98;15.30;;;;;;;-0.97;93.54;97272.28;4870400;29;20033;-70
2021/01/25 07:33:22;;;;;;;22.95;14.52;;;;;;;-0.86;93.16;97280.81;4872369;29;20024;-71
2021/01/25 07:35:48;;;;;;;25.70;14.50;;;;;;;-0.79;92.22;97282.50;4872393;29;20042;-70
2021/01/25 07:38:14;;;;;;;22.83;14.27;;;;;;;-0.76;91.56;97291.84;4871984;29;20044;-71
2021/01/25 07:40:39;;;;;;;19.83;12.40;;;;;;;-0.85;91.29;97285.06;4870964;29;20025;-70
2021/01/25 07:43:06;;;;;;;22.17;13.80;;;;;;;-0.85;91.25;97292.69;4871053;29;20076;-70
2021/01/25 07:45:32;;;;;;;23.67;14.68;;;;;;;-0.76;91.49;97291.00;4870363;29;20479;-71
2021/01/25 07:47:58;;;;;;;25.90;16.25;;;;;;;-0.94;91.83;97302.81;4870831;29;20029;-70
2021/01/25 07:50:24;;;;;;;32.58;15.05;;;;;;;-1.04;92.38;97301.09;4870207;29;20380;-70
2021/01/25 07:52:59;;;;;;;29.08;16.67;;;;;;;-0.81;92.17;97308.78;4871522;29;20040;-70
2021/01/25 07:55:24;;;;;;;59.58;18.42;;;;;;;-0.80;92.11;97306.25;4871365;29;20053;-70
2021/01/25 07:57:50;;;;;;;34.28;17.70;;;;;;;-0.60;92.07;97302.91;4869882;29;20470;-71
2021/01/25 08:00:24;;;;;;;31.33;16.55;;;;;;;-0.38;92.05;97307.19;4870258;29;20124;-70
2021/01/25 08:02:56;;;;;;;38.95;16.95;;;;;;;-0.46;91.00;97306.31;4869859;29;20029;-70
2021/01/25 08:05:24;;;;;;;29.35;15.60;;;;;;;-0.38;90.36;97317.38;4871020;29;20071;-70
2021/01/25 08:07:50;;;;;;;37.80;15.60;;;;;;;-0.34;90.54;97316.53;4870233;29;20104;-71
2021/01/25 08:10:16;;;;;;;39.28;16.00;;;;;;;-0.16;90.17;97314.84;4870962;29;20036;-70
2021/01/25 08:12:46;;;;;;;30.90;17.13;;;;;;;-0.05;89.44;97313.13;4869280;29;20033;-70
2021/01/25 08:15:23;;;;;;;34.47;16.75;;;;;;;0.08;89.14;97314.84;4870461;29;20064;-71
2021/01/25 08:17:58;;;;;;;35.25;17.00;;;;;;;0.05;88.46;97308.88;4871471;29;20096;-70
2021/01/25 08:20:27;;;;;;;36.60;14.75;;;;;;;0.31;87.49;97324.16;4870409;29;20044;-70
2021/01/25 08:23:20;;;;;;;41.30;15.32;;;;;;;-0.30;89.10;97313.13;4870683;29;20033;-71
2021/01/25 08:25:54;;;;;;;39.95;15.35;;;;;;;-0.45;90.11;97322.44;4879509;29;20558;-70
2021/01/25 08:28:23;;;;;;;36.85;16.48;;;;;;;-0.18;89.27;97331.81;4889112;29;20040;-71
2021/01/25 08:30:50;;;;;;;26.02;14.40;;;;;;;-0.39;89.54;97332.63;4889187;29;20037;-70
2021/01/25 08:33:29;;;;;;;34.42;13.93;;;;;;;-0.27;89.65;97338.59;4887435;29;20032;-70
2021/01/25 08:35:56;;;;;;;25.85;13.80;;;;;;;-0.27;89.47;97342.81;4888060;29;20029;-70
2021/01/25 08:38:26;;;;;;;37.95;18.00;;;;;;;-0.36;89.82;97347.91;4887194;29;20418;-70
2021/01/25 08:40:53;;;;;;;;;;;;;;;-0.37;90.47;97346.22;4887333;29;20039;-70
2021/01/25 08:43:22;;;;;;;38.65;17.13;;;;;;;-0.26;89.81;97355.53;4888220;29;19920;-70
2021/01/25 08:45:48;;;;;;;34.45;16.40;;;;;;;-0.41;89.82;97349.59;4887976;29;20490;-70
2021/01/25 08:48:13;;;;;;;36.13;16.42;;;;;;;-0.34;90.12;97357.25;4887466;29;20028;-71
2021/01/25 08:50:40;;;;;;;34.80;17.10;;;;;;;-0.26;89.82;97360.63;4886658;29;20524;-70
2021/01/25 08:53:08;;;;;;;32.50;19.48;;;;;;;-0.32;89.97;97360.63;4888347;29;20032;-70
2021/01/25 08:55:47;;;;;;;40.95;22.98;;;;;;;-0.28;89.88;97356.41;4886931;29;20037;-70
2021/01/25 08:58:25;;;;;;;46.93;26.03;;;;;;;-0.24;90.41;97367.41;4887463;29;20064;-70
2021/01/25 09:00:51;;;;;;;46.28;25.25;;;;;;;-0.32;90.09;97372.50;4886682;29;20071;-70
2021/01/25 09:03:19;;;;;;;49.40;22.77;;;;;;;-0.24;89.95;97377.59;4888507;29;20125;-70
2021/01/25 09:05:45;;;;;;;50.10;22.48;;;;;;;-0.26;90.01;97388.63;4888029;29;20032;-71
2021/01/25 09:08:11;;;;;;;42.55;22.10;;;;;;;-0.19;90.31;97386.09;4902660;29;20035;-70
2021/01/25 09:10:36;;;;;;;69.00;28.55;;;;;;;-0.14;90.07;97389.53;4888133;29;20032;-71
2021/01/25 09:13:02;;;;;;;54.40;24.05;;;;;;;-0.16;90.06;97397.13;4886975;29;20093;-70
2021/01/25 09:15:28;;;;;;;44.75;20.88;;;;;;;-0.08;89.89;97399.69;4888561;29;20036;-70
2021/01/25 09:17:55;;;;;;;36.40;18.42;;;;;;;-0.05;90.20;97399.69;4888357;29;20493;-71
2021/01/25 09:20:20;;;;;;;31.42;18.10;;;;;;;0.03;89.78;97400.56;4887498;29;20104;-71
2021/01/25 09:22:46;;;;;;;39.10;19.27;;;;;;;0.03;89.57;97398.00;4887035;29;20123;-71
2021/01/25 09:25:12;;;;;;;34.00;18.75;;;;;;;0.04;89.52;97404.78;4888694;29;20096;-70
2021/01/25 09:27:39;;;;;;;39.25;19.48;;;;;;;0.03;90.00;97405.66;4888309;29;20016;-71
2021/01/25 09:30:06;;;;;;;39.03;21.83;;;;;;;0.09;89.71;97410.75;4888167;29;20025;-70
2021/01/25 09:32:32;;;;;;;43.13;21.30;;;;;;;0.42;89.17;97411.63;4887588;29;20118;-71
2021/01/25 09:34:57;;;;;;;47.33;23.85;;;;;;;0.27;89.28;97411.63;4887961;29;20040;-70
2021/01/25 09:37:22;;;;;;;36.30;20.90;;;;;;;0.16;89.35;97420.09;4887719;29;20059;-71
2021/01/25 09:39:48;;;;;;;39.17;23.02;;;;;;;0.10;90.19;97419.25;4888098;29;20086;-70
2021/01/25 09:42:13;;;;;;;40.53;23.15;;;;;;;0.13;90.25;97430.28;4887646;29;20028;-70
2021/01/25 09:44:39;;;;;;;43.65;22.85;;;;;;;0.16;90.35;97425.19;4886604;29;20028;-70
2021/01/25 09:47:05;;;;;;;46.90;24.48;;;;;;;0.06;90.82;97427.72;4888577;29;20071;-70
2021/01/25 09:49:30;;;;;;;38.28;21.67;;;;;;;0.12;91.13;97433.66;4887863;29;20108;-70
2021/01/25 09:51:56;;;;;;;46.38;23.02;;;;;;;0.31;91.18;97434.53;4886989;29;20040;-70
2021/01/25 09:54:21;;;;;;;41.35;24.25;;;;;;;0.27;90.83;97447.28;4887022;29;20035;-70
2021/01/25 09:56:47;;;;;;;37.95;23.42;;;;;;;0.27;90.60;97447.28;4887581;29;20573;-70
2021/01/25 09:59:12;;;;;;;47.53;21.55;;;;;;;0.35;90.49;97451.53;4887694;29;20497;-70
2021/01/25 10:01:37;;;;;;;45.60;20.58;;;;;;;0.50;90.07;97455.78;4885602;29;20032;-70
2021/01/25 10:04:03;;;;;;;43.92;20.52;;;;;;;0.52;89.53;97456.63;4887468;29;20132;-70
2021/01/25 10:06:29;;;;;;;46.35;22.67;;;;;;;0.67;89.34;97464.25;4888474;29;20123;-71
2021/01/25 10:08:57;;;;;;;41.22;21.05;;;;;;;0.71;89.46;97463.41;4888424;29;20112;-70
2021/01/25 10:11:24;;;;;;;48.33;22.00;;;;;;;0.69;88.79;97467.69;4888911;29;20036;-70
2021/01/25 10:13:50;;;;;;;40.88;21.98;;;;;;;0.57;89.57;97472.75;4886947;29;20104;-70
2021/01/25 10:16:16;;;;;;;31.15;21.13;;;;;;;0.58;89.45;97474.50;4887125;29;20032;-71
2021/01/25 10:18:41;;;;;;;34.60;21.10;;;;;;;0.61;89.39;97468.53;4886258;29;20043;-71
2021/01/25 10:21:06;;;;;;;51.17;21.98;;;;;;;0.64;89.36;97483.81;4883673;29;20028;-71
2021/01/25 10:23:32;;;;;;;45.65;22.45;;;;;;;0.67;89.11;97479.56;4884453;29;20025;-71
2021/01/25 10:25:57;;;;;;;40.78;20.55;;;;;;;0.80;88.87;97489.78;4884613;29;20119;-72
2021/01/25 10:28:23;;;;;;;36.25;19.75;;;;;;;0.86;88.64;97490.59;4887250;29;20394;-72
2021/01/25 10:30:48;;;;;;;41.03;20.45;;;;;;;0.83;89.36;97492.31;4888041;29;20051;-69
2021/01/25 10:33:14;;;;;;;37.75;20.13;;;;;;;0.92;88.72;97493.16;4888016;29;20096;-71
2021/01/25 10:35:40;;;;;;;38.17;20.42;;;;;;;0.99;88.20;97496.56;4888333;29;20024;-72
2021/01/25 10:38:05;;;;;;;42.17;23.05;;;;;;;0.88;88.56;97488.06;4890807;29;20115;-71
2021/01/25 10:40:31;;;;;;;45.15;22.38;;;;;;;0.95;88.65;97494.84;4889959;29;20033;-71
2021/01/25 10:42:57;;;;;;;51.88;23.25;;;;;;;1.12;88.75;97499.94;4891089;29;21217;-71
2021/01/25 10:45:23;;;;;;;38.67;22.67;;;;;;;1.25;87.97;97493.94;4891181;29;20020;-71
2021/01/25 10:47:49;;;;;;;40.88;21.60;;;;;;;1.41;87.62;97499.91;4891013;29;20029;-71
2021/01/25 10:50:14;;;;;;;43.63;24.40;;;;;;;1.45;87.95;97509.22;4891020;29;20036;-71
2021/01/25 10:52:40;;;;;;;39.95;25.25;;;;;;;1.79;86.46;97510.00;4890859;29;20025;-71
2021/01/25 10:55:07;;;;;;;45.70;22.95;;;;;;;1.89;85.85;97509.09;4890800;29;20036;-71
2021/01/25 10:57:33;;;;;;;39.15;22.40;;;;;;;2.07;85.14;97508.13;4888983;29;20123;-72
2021/01/25 11:00:01;;;;;;;39.53;23.27;;;;;;;1.96;85.97;97512.47;4889382;29;21015;-76
2021/01/25 11:02:26;;;;;;;36.70;22.52;;;;;;;2.14;84.90;97509.81;4889706;29;20397;-72
2021/01/25 11:04:51;;;;;;;39.33;22.02;;;;;;;2.00;84.93;97516.69;4888730;29;20040;-71
2021/01/25 11:07:17;;;;;;;40.30;23.23;;;;;;;2.15;83.87;97514.06;4888282;29;20940;-71
2021/01/25 11:09:42;;;;;;;44.88;25.17;;;;;;;1.89;85.74;97516.75;4889072;29;20032;-71
2021/01/25 11:12:07;;;;;;;49.78;24.23;;;;;;;2.11;84.70;97517.50;4888790;29;20073;-71
2021/01/25 11:14:32;;;;;;;48.42;22.80;;;;;;;2.04;85.30;97523.50;4889362;29;20036;-70
2021/01/25 11:16:58;;;;;;;44.78;23.98;;;;;;;2.15;84.37;97526.84;4889293;29;20493;-71
2021/01/25 11:19:23;;;;;;;44.78;22.48;;;;;;;2.24;83.23;97531.91;4889948;29;20471;-71
2021/01/25 11:21:48;;;;;;;40.55;21.48;;;;;;;2.19;84.52;97528.53;4889223;29;20035;-71
2021/01/25 11:24:14;;;;;;;34.60;19.58;;;;;;;2.31;83.55;97533.56;4889297;29;20080;-72
2021/01/25 11:26:40;;;;;;;35.25;19.75;;;;;;;2.28;84.85;97533.59;4889119;29;20076;-71
2021/01/25 11:29:07;;;;;;;60.65;30.23;;;;;;;2.38;83.58;97538.66;4902574;29;20465;-71
2021/01/25 11:31:33;;;;;;;133.30;59.00;;;;;;;2.21;84.17;97531.91;4889155;29;20112;-71
2021/01/25 11:33:59;;;;;;;110.43;59.40;;;;;;;1.97;85.19;97542.25;4888849;29;20057;-71
2021/01/25 11:36:25;;;;;;;41.58;23.05;;;;;;;1.91;85.17;97548.22;4890117;29;20513;-71
2021/01/25 11:38:50;;;;;;;27.20;16.90;;;;;;;1.79;85.59;97554.25;4886608;29;20029;-75
2021/01/25 11:41:15;;;;;;;29.60;17.25;;;;;;;1.80;86.23;97555.94;4888774;29;20029;-75
2021/01/25 11:43:41;;;;;;;27.67;16.10;;;;;;;1.74;86.94;97555.97;4885658;29;20036;-76
2021/01/25 11:46:06;;;;;;;26.98;15.80;;;;;;;1.76;86.26;97559.34;4889128;29;20036;-74
2021/01/25 11:48:31;;;;;;;26.48;15.63;;;;;;;1.78;86.51;97556.78;4887020;29;20079;-75
2021/01/25 11:50:57;;;;;;;22.10;13.93;;;;;;;1.70;88.17;97553.41;4887635;29;20175;-75
2021/01/25 11:53:22;;;;;;;22.40;14.00;;;;;;;1.90;86.69;97561.03;4884383;29;20049;-75
2021/01/25 11:55:47;;;;;;;46.95;23.75;;;;;;;1.98;86.36;97560.16;4887450;29;20119;-76
2021/01/25 11:58:13;;;;;;;21.00;13.10;;;;;;;1.75;87.11;97557.66;4888157;29;20048;-75
2021/01/25 12:00:38;;;;;;;39.08;17.85;;;;;;;2.00;86.45;97562.69;4901247;29;20066;-75
2021/01/25 12:03:04;;;;;;;31.42;16.58;;;;;;;1.53;87.00;97566.22;4889809;29;20029;-75
2021/01/25 12:05:29;;;;;;;32.55;15.68;;;;;;;1.96;86.14;97566.09;4884286;29;20498;-74
2021/01/25 12:07:57;;;;;;;25.25;13.30;;;;;;;2.16;86.65;97564.31;4885790;29;20103;-75
2021/01/25 12:10:23;;;;;;;29.33;13.70;;;;;;;2.41;85.02;97565.03;4889698;29;20032;-75
2021/01/25 12:12:48;;;;;;;22.98;13.90;;;;;;;2.73;83.05;97564.84;4889564;29;20563;-75
2021/01/25 12:15:14;;;;;;;31.30;16.42;;;;;;;2.71;83.38;97570.84;4885195;29;21059;-74
2021/01/25 12:17:39;;;;;;;19.17;11.43;;;;;;;3.16;81.94;97561.97;4887413;29;20033;-75
2021/01/25 12:20:05;;;;;;;19.90;12.38;;;;;;;3.26;81.57;97568.72;4885461;29;20072;-75
2021/01/25 12:22:31;;;;;;;25.38;11.05;;;;;;;3.41;80.03;97566.88;4883664;29;20032;-74
2021/01/25 12:24:56;;;;;;;22.40;11.55;;;;;;;3.64;80.03;97559.84;4887426;29;20383;-74
2021/01/25 12:27:21;;;;;;;18.58;10.00;;;;;;;3.46;79.83;97570.25;4889624;29;20115;-74
2021/01/25 12:29:47;;;;;;;16.98;10.27;;;;;;;3.27;80.86;97565.28;4889426;29;20028;-75
2021/01/25 12:32:12;;;;;;;22.10;11.98;;;;;;;3.29;80.66;97571.25;4888006;29;20059;-75
2021/01/25 12:34:38;;;;;;;22.30;11.10;;;;;;;3.26;81.07;97573.84;4883980;29;20032;-74
2021/01/25 12:37:04;;;;;;;16.15;10.40;;;;;;;3.35;81.10;97568.63;4888486;29;20504;-74
2021/01/25 12:39:29;;;;;;;21.27;11.50;;;;;;;3.38;80.18;97566.91;4883349;29;20036;-75
2021/01/25 12:41:54;;;;;;;19.75;10.90;;;;;;;3.40;80.10;97570.31;4887579;29;20044;-74
2021/01/25 12:44:21;;;;;;;19.80;10.95;;;;;;;3.20;80.89;97573.88;4889428;29;20036;-75
2021/01/25 12:46:49;;;;;;;23.02;11.38;;;;;;;3.15;81.80;97570.53;4882776;29;20494;-75
2021/01/25 12:49:16;;;;;;;18.38;11.10;;;;;;;2.66;82.86;97578.56;4886040;29;20028;-75
2021/01/25 12:51:41;;;;;;;24.45;11.68;;;;;;;2.80;83.34;97574.19;4883221;29;20500;-75
2021/01/25 12:54:07;;;;;;;22.25;9.77;;;;;;;2.18;84.78;97595.81;4885488;29;20033;-75
2021/01/25 12:56:32;;;;;;;21.20;10.07;;;;;;;2.84;83.64;97583.53;4883258;29;20481;-75
2021/01/25 12:58:57;;;;;;;22.25;10.20;;;;;;;2.75;83.56;97580.19;4882833;29;20032;-75
2021/01/25 13:01:23;;;;;;;15.52;9.43;;;;;;;3.14;81.76;97588.44;4886539;29;20032;-75
2021/01/25 13:03:49;;;;;;;28.10;12.40;;;;;;;2.99;83.73;97582.56;4887893;29;20487;-75
2021/01/25 13:06:14;;;;;;;15.68;8.95;;;;;;;2.83;83.63;97584.38;4887889;29;20514;-75
2021/01/25 13:08:40;;;;;;;17.77;9.70;;;;;;;3.18;83.78;97593.50;4888944;29;20092;-75
2021/01/25 13:11:05;;;;;;;15.43;8.93;;;;;;;3.19;83.10;97592.69;4885786;29;20035;-75
2021/01/25 13:13:30;;;;;;;13.05;7.47;;;;;;;3.34;81.88;97592.53;4883224;29;20342;-75
2021/01/25 13:15:56;;;;;;;8.85;3.80;;;;;;;3.63;79.45;97588.88;4887426;29;20059;-72
2021/01/25 13:18:21;;;;;;;3.35;2.60;;;;;;;3.47;78.71;97589.88;4886746;29;20036;-71
2021/01/25 13:20:46;;;;;;;4.60;1.83;;;;;;;2.96;80.75;97603.06;4886374;29;20040;-71
2021/01/25 13:23:16;;;;;;;3.55;1.60;;;;;;;3.07;79.89;97603.00;4885914;29;20037;-70
2021/01/25 13:25:42;;;;;;;1.80;1.60;;;;;;;2.79;81.08;97613.41;4885919;29;20028;-71
2021/01/25 13:28:08;;;;;;;1.63;1.52;;;;;;;3.08;81.28;97602.13;4887393;29;20095;-71
2021/01/25 13:30:33;;;;;;;1.40;1.30;;;;;;;3.12;80.13;97603.81;4886500;29;20032;-71
2021/01/25 13:32:59;;;;;;;1.35;1.25;;;;;;;3.04;80.66;97603.84;4887507;29;20021;-71
2021/01/25 13:35:25;;;;;;;2.28;1.13;;;;;;;3.16;80.56;97615.72;4887254;29;20120;-71
2021/01/25 13:37:51;;;;;;;1.30;1.20;;;;;;;2.80;81.08;97625.34;4887001;29;20032;-71
2021/01/25 13:40:19;;;;;;;1.40;1.30;;;;;;;2.68;81.00;97630.53;4886267;29;20199;-70
2021/01/25 13:42:45;;;;;;;2.28;1.10;;;;;;;2.18;83.09;97639.25;4885936;29;20460;-71
2021/01/25 13:45:14;;;;;;;1.00;1.00;;;;;;;2.12;83.45;97639.25;4885465;29;20032;-71
2021/01/25 13:47:40;;;;;;;1.30;1.20;;;;;;;2.05;83.61;97645.25;4886427;29;20116;-71
2021/01/25 13:50:06;;;;;;;3.30;1.20;;;;;;;1.99;84.01;97647.84;4886640;29;20024;-73
2021/01/25 13:52:31;;;;;;;3.65;1.38;;;;;;;1.83;84.99;97656.34;4887912;29;20119;-71
2021/01/25 13:54:56;;;;;;;1.00;1.00;;;;;;;1.75;84.82;97664.91;4840606;29;20057;-70
2021/01/25 13:57:22;;;;;;;1.50;1.40;;;;;;;1.78;85.56;97662.31;4899772;29;20021;-71
2021/01/25 13:59:47;;;;;;;1.98;1.50;;;;;;;1.93;85.80;97665.69;4888367;29;20047;-70
2021/01/25 14:02:12;;;;;;;1.38;1.27;;;;;;;1.74;86.24;97678.53;4886564;29;20029;-70
2021/01/25 14:04:38;;;;;;;3.17;1.52;;;;;;;1.77;87.12;97675.94;4887702;29;20502;-71
2021/01/25 14:07:03;;;;;;;1.80;1.70;;;;;;;1.58;87.50;97674.25;4888294;29;20116;-70
2021/01/25 14:09:28;;;;;;;1.70;1.60;;;;;;;1.85;86.33;97685.31;4887229;29;20021;-70
2021/01/25 14:11:54;;;;;;;1.70;1.60;;;;;;;1.90;86.50;97687.00;4891164;29;20029;-70
2021/01/25 14:14:20;;;;;;;1.70;1.60;;;;;;;1.80;86.79;97690.44;4890517;29;20675;-70
2021/01/25 14:16:46;;;;;;;2.05;1.92;;;;;;;2.01;86.61;97692.09;4890034;29;20115;-70
2021/01/25 14:19:12;;;;;;;2.30;1.90;;;;;;;2.00;87.15;97696.34;4890775;29;20433;-70
2021/01/25 14:21:37;;;;;;;2.10;1.90;;;;;;;1.91;86.92;97701.47;4890990;29;20405;-70
2021/01/25 14:24:03;;;;;;;3.60;2.35;;;;;;;1.69;87.01;97702.31;4890058;29;20032;-70
2021/01/25 14:26:28;;;;;;;4.85;2.30;;;;;;;1.53;88.09;97699.78;4890426;29;20036;-71
2021/01/25 14:28:54;;;;;;;2.70;2.30;;;;;;;1.45;88.72;97711.72;4891942;29;20029;-70
2021/01/25 14:31:20;;;;;;;6.35;3.33;;;;;;;1.30;89.06;97719.31;4890725;29;20024;-70
2021/01/25 14:33:50;;;;;;;3.15;2.90;;;;;;;1.33;89.39;97721.03;4890048;29;20028;-70
2021/01/25 14:36:16;;;;;;;3.40;2.88;;;;;;;1.25;89.56;97726.13;4892569;29;20029;-71
2021/01/25 14:38:41;;;;;;;7.25;3.60;;;;;;;1.24;89.83;97727.81;4890191;29;20085;-70
2021/01/25 14:41:07;;;;;;;4.60;3.50;;;;;;;1.26;89.98;97733.78;4890977;29;20029;-71
2021/01/25 14:43:32;;;;;;;3.65;3.30;;;;;;;1.28;89.41;97734.63;4888217;29;20056;-72
2021/01/25 14:45:57;;;;;;;8.45;3.85;;;;;;;1.24;89.48;97747.38;4890504;29;20036;-74
2021/01/25 14:48:22;;;;;;;5.55;3.67;;;;;;;1.18;90.00;97755.03;4891817;29;20124;-72
2021/01/25 14:50:48;;;;;;;9.43;4.00;;;;;;;1.04;90.39;97765.19;4892630;29;20051;-71
2021/01/25 14:53:13;;;;;;;3.85;3.53;;;;;;;0.83;91.07;97763.41;4892243;29;20032;-71
2021/01/25 14:55:38;;;;;;;3.92;3.63;;;;;;;0.94;91.24;97769.41;4893591;29;20085;-71
2021/01/25 14:58:06;;;;;;;4.85;4.30;;;;;;;0.91;91.30;97765.97;4893562;29;20114;-71
2021/01/25 15:00:31;;;;;;;5.72;3.80;;;;;;;0.96;91.27;97777.03;4892171;29;20041;-71
2021/01/25 15:02:57;;;;;;;6.90;4.90;;;;;;;0.76;91.83;97779.50;4891134;29;20017;-71
2021/01/25 15:05:29;;;;;;;8.23;5.82;;;;;;;0.73;91.97;97782.91;4890761;29;20024;-72
2021/01/25 15:07:54;;;;;;;6.65;5.78;;;;;;;0.90;91.98;97787.22;4894124;29;20025;-71
2021/01/25 15:10:20;;;;;;;8.73;5.57;;;;;;;0.83;92.44;97800.81;4891455;29;20526;-71
2021/01/25 15:12:47;;;;;;;6.82;5.32;;;;;;;0.88;92.14;97796.59;4893122;29;20016;-71
2021/01/25 15:15:14;;;;;;;6.63;4.30;;;;;;;0.93;92.06;97803.41;4892513;29;20381;-71
2021/01/25 15:17:40;;;;;;;9.95;5.50;;;;;;;0.69;92.10;97808.38;4890356;29;20138;-71
2021/01/25 15:20:08;;;;;;;48.75;26.63;;;;;;;0.66;93.05;97808.34;4893058;29;20033;-71
2021/01/25 15:22:33;;;;;;;13.55;7.38;;;;;;;0.59;93.33;97816.84;4892883;29;20040;-71
2021/01/25 15:24:59;;;;;;;15.02;6.18;;;;;;;0.58;94.10;97826.19;4891825;29;20060;-71
2021/01/25 15:27:24;;;;;;;10.73;6.78;;;;;;;0.58;93.85;97828.72;4891767;29;20103;-71
2021/01/25 15:29:50;;;;;;;14.10;7.30;;;;;;;0.53;93.94;97827.81;4890183;29;20025;-71
2021/01/25 15:32:15;;;;;;;15.70;7.43;;;;;;;0.68;94.22;97833.03;4892103;29;20383;-71
2021/01/25 15:34:40;;;;;;;15.27;7.30;;;;;;;0.65;94.57;97833.00;4891795;29;20044;-71
2021/01/25 15:37:06;;;;;;;12.68;8.18;;;;;;;0.73;94.20;97839.00;4892235;29;20029;-72
2021/01/25 15:39:31;;;;;;;15.15;6.15;;;;;;;0.85;93.45;97839.91;4891306;29;20037;-72
2021/01/25 15:41:57;;;;;;;16.08;7.60;;;;;;;0.76;93.68;97841.56;4892634;29;20024;-71
2021/01/25 15:44:22;;;;;;;14.38;8.65;;;;;;;0.82;93.64;97840.72;4889788;29;20032;-72
2021/01/25 15:46:48;;;;;;;10.70;7.10;;;;;;;0.67;94.16;97855.94;4890359;29;20032;-72
2021/01/25 15:49:14;;;;;;;10.23;6.80;;;;;;;0.80;93.80;97862.81;4888568;29;20024;-72
2021/01/25 15:51:40;;;;;;;9.57;7.05;;;;;;;0.83;93.07;97864.56;4891333;29;20025;-71
2021/01/25 15:54:06;;;;;;;10.50;7.32;;;;;;;0.74;93.54;97873.00;4891877;29;20025;-73
2021/01/25 15:56:31;;;;;;;5.28;4.78;;;;;;;0.66;93.17;97880.56;4889202;29;20093;-71
2021/01/25 15:58:57;;;;;;;5.50;5.00;;;;;;;0.93;92.70;97884.16;4891432;29;20037;-71
2021/01/25 16:01:22;;;;;;;6.63;5.55;;;;;;;0.75;92.85;97900.19;4890918;29;20035;-71
2021/01/25 16:03:48;;;;;;;4.07;3.72;;;;;;;0.50;93.04;97904.25;4890572;29;20474;-71
2021/01/25 16:06:16;;;;;;;2.70;2.50;;;;;;;0.52;93.57;97907.66;4892276;29;20017;-71
2021/01/25 16:08:42;;;;;;;3.00;2.70;;;;;;;0.61;93.11;97907.72;4891961;29;20525;-71
2021/01/25 16:11:09;;;;;;;3.22;2.90;;;;;;;0.52;93.78;97907.66;4890504;29;20020;-72
2021/01/25 16:13:35;;;;;;;7.05;3.92;;;;;;;0.63;93.78;97911.16;4892359;29;20033;-71
2021/01/25 16:16:02;;;;;;;6.10;5.40;;;;;;;0.70;92.76;97915.44;4891604;29;20072;-72
2021/01/25 16:18:27;;;;;;;7.50;5.82;;;;;;;0.79;92.74;97922.31;4906069;29;20199;-71
2021/01/25 16:20:53;;;;;;;5.90;4.15;;;;;;;0.57;92.95;97925.53;4891907;29;20111;-72
2021/01/25 16:23:18;;;;;;;5.07;4.57;;;;;;;0.62;93.01;97923.88;4889309;29;20033;-68
2021/01/25 16:25:43;;;;;;;6.68;4.72;;;;;;;0.80;92.56;97928.25;4883978;29;20069;-68
2021/01/25 16:28:09;;;;;;;12.02;8.85;;;;;;;0.75;92.28;97926.53;4883228;29;20124;-68
2021/01/25 16:30:34;;;;;;;9.27;6.47;;;;;;;0.58;93.04;97924.69;4888031;29;20119;-68
2021/01/25 16:32:59;;;;;;;12.50;7.45;;;;;;;0.54;93.54;97928.94;4888718;29;20139;-68
2021/01/25 16:35:25;;;;;;;12.70;7.80;;;;;;;0.40;94.25;97939.00;4884996;29;20048;-68
2021/01/25 16:37:50;;;;;;;10.50;6.70;;;;;;;0.44;94.66;97934.81;4883465;29;20032;-68
2021/01/25 16:40:16;;;;;;;11.23;7.20;;;;;;;0.50;95.01;97945.03;4883372;29;20084;-68
2021/01/25 16:42:41;;;;;;;14.95;7.75;;;;;;;0.50;95.42;97947.59;4883469;29;20029;-68
2021/01/25 16:45:07;;;;;;;21.15;10.52;;;;;;;0.35;95.67;97950.84;4883839;29;20515;-68
2021/01/25 16:47:32;;;;;;;18.35;10.10;;;;;;;0.46;96.14;97959.44;4889087;29;20111;-68
2021/01/25 16:49:58;;;;;;;18.48;9.52;;;;;;;0.53;96.15;97965.44;4889205;29;20035;-68
2021/01/25 16:52:23;;;;;;;20.27;10.93;;;;;;;0.53;96.08;97965.44;4888980;29;20039;-68
2021/01/25 16:54:48;;;;;;;18.60;10.13;;;;;;;0.55;95.81;97973.97;4887157;29;20036;-68
2021/01/25 16:57:14;;;;;;;34.00;17.25;;;;;;;0.60;96.44;97976.53;4888381;29;20037;-66
2021/01/25 16:59:39;;;;;;;222.60;104.20;;;;;;;0.54;95.54;97976.50;4883252;29;20100;-66
2021/01/25 17:02:05;;;;;;;70.40;35.47;;;;;;;0.57;94.99;97979.91;4883436;29;20648;-67
2021/01/25 17:04:30;;;;;;;43.20;22.00;;;;;;;0.61;95.84;97986.75;4883715;29;20052;-69
2021/01/25 17:06:58;;;;;;;33.35;17.38;;;;;;;0.57;95.77;97987.56;4883187;29;20521;-69
2021/01/25 17:09:24;;;;;;;23.80;14.60;;;;;;;0.52;95.17;97991.75;4883143;29;20031;-66
2021/01/25 17:11:49;;;;;;;27.33;18.27;;;;;;;0.62;95.34;97996.09;4888762;29;20033;-69
2021/01/25 17:14:14;;;;;;;42.22;24.13;;;;;;;0.67;95.68;97998.69;4886817;29;20036;-66
2021/01/25 17:16:42;;;;;;;23.60;15.55;;;;;;;0.59;94.92;98005.44;4883228;29;20033;-68
2021/01/25 17:19:07;;;;;;;24.48;16.10;;;;;;;0.57;95.45;98013.03;4888802;29;20041;-66
2021/01/25 17:21:32;;;;;;;50.78;25.00;;;;;;;0.69;95.85;98010.63;4888608;29;20044;-67
2021/01/25 17:23:58;;;;;;;32.38;18.42;;;;;;;0.60;94.91;98013.06;4887389;29;20072;-67